Time;durP1;ratioP1;P1;durP2;ratioP2;P2;SDS_P1;SDS_P2;PMS_P1;PMS_P2;Temp;Humidity;BMP_temperature;BMP_pressure;BME280_temperature;BME280_humidity;BME280_pressure;Samples;Min_cycle;Max_cycle;Signal;HPM_P1;HPM_P2
2023/06/21 00:00:24;;;;;;;31.45;16.30;;;;;;;25.59;70.08;99692.19;4948149;28;20071;-86
2023/06/21 00:02:52;;;;;;;32.30;17.02;;;;;;;25.61;70.12;99697.41;4946742;28;20129;-87
2023/06/21 00:05:18;;;;;;;29.90;16.85;;;;;;;25.57;70.08;99702.50;4958053;28;20074;-85
2023/06/21 00:07:47;;;;;;;29.83;17.90;;;;;;;25.52;70.13;99692.34;4981097;28;20526;-85
2023/06/21 00:10:14;;;;;;;26.98;16.65;;;;;;;25.57;70.18;99691.63;4954436;28;20058;-84
2023/06/21 00:12:41;;;;;;;30.55;16.55;;;;;;;25.58;69.99;99692.44;4961433;28;20109;-86
2023/06/21 00:15:08;;;;;;;27.88;16.58;;;;;;;25.53;69.75;99691.25;4951383;28;20500;-85
2023/06/21 00:17:35;;;;;;;24.15;16.65;;;;;;;25.51;69.88;99701.53;4956782;28;20055;-85
2023/06/21 00:20:03;;;;;;;30.55;15.57;;;;;;;25.46;69.50;99697.88;4932811;28;20578;-85
2023/06/21 00:22:30;;;;;;;26.60;15.85;;;;;;;25.47;69.32;99710.44;4951440;28;20101;-85
2023/06/21 00:24:57;;;;;;;28.13;15.48;;;;;;;25.47;69.31;99715.84;4963397;28;20150;-84
2023/06/21 00:27:25;;;;;;;26.05;16.65;;;;;;;25.45;69.54;99712.53;4958928;28;20046;-86
2023/06/21 00:29:51;;;;;;;26.20;16.48;;;;;;;25.42;69.53;99719.28;4931356;28;20464;-85
2023/06/21 00:32:18;;;;;;;33.83;17.02;;;;;;;25.38;69.70;99725.41;4937150;28;20054;-85
2023/06/21 00:34:47;;;;;;;23.00;16.33;;;;;;;25.38;69.63;99728.97;4981675;28;20112;-86
2023/06/21 00:37:14;;;;;;;31.88;17.13;;;;;;;25.36;69.68;99722.91;4972881;28;20038;-85
2023/06/21 00:39:41;;;;;;;26.17;16.80;;;;;;;25.33;69.74;99718.78;4969224;28;20078;-84
2023/06/21 00:42:08;;;;;;;26.38;16.05;;;;;;;25.30;69.95;99721.16;4928669;28;20828;-85
2023/06/21 00:44:35;;;;;;;24.38;16.00;;;;;;;25.33;70.05;99713.34;4976497;28;20452;-84
2023/06/21 00:47:02;;;;;;;24.92;16.67;;;;;;;25.34;69.98;99712.31;4965670;28;20057;-85
2023/06/21 00:49:29;;;;;;;29.10;17.45;;;;;;;25.30;69.98;99708.41;4960706;28;20063;-85
2023/06/21 00:51:59;;;;;;;30.30;16.98;;;;;;;25.36;69.80;99711.22;4949503;28;20575;-84
2023/06/21 00:54:36;;;;;;;30.13;16.27;;;;;;;25.19;71.20;99722.81;4962221;28;20050;-85
2023/06/21 00:57:03;;;;;;;35.63;17.33;;;;;;;25.30;70.77;99729.31;4957425;28;20058;-85
2023/06/21 00:59:31;;;;;;;28.13;16.63;;;;;;;25.32;71.17;99730.72;4962575;28;20074;-85
2023/06/21 01:02:00;;;;;;;25.85;16.75;;;;;;;25.37;71.28;99726.50;4939803;28;20407;-84
2023/06/21 01:04:31;;;;;;;34.22;18.92;;;;;;;25.37;71.33;99718.34;4950377;28;20473;-85
2023/06/21 01:07:04;;;;;;;28.25;18.65;;;;;;;25.33;71.57;99720.69;4941550;28;20054;-85
2023/06/21 01:09:56;;;;;;;34.22;20.48;;;;;;;25.22;72.73;99716.06;4934376;28;20047;-84
2023/06/21 01:13:00;;;;;;;32.35;20.50;;;;;;;25.20;73.41;99732.59;4948153;28;20536;-84
2023/06/21 01:15:32;;;;;;;38.47;19.85;;;;;;;25.34;72.53;99734.06;4948269;28;20126;-85
2023/06/21 01:18:00;;;;;;;33.55;20.75;;;;;;;25.36;72.78;99736.50;4952314;28;20061;-85
2023/06/21 01:20:30;;;;;;;36.58;20.17;;;;;;;25.32;73.20;99743.50;4941753;28;20053;-85
2023/06/21 01:23:20;;;;;;;36.97;20.65;;;;;;;25.27;73.83;99751.53;4958554;28;20499;-84
2023/06/21 01:26:06;;;;;;;49.92;23.30;;;;;;;25.37;72.62;99756.41;4958845;28;21339;-85
2023/06/21 01:28:52;;;;;;;42.70;22.48;;;;;;;25.35;72.74;99753.91;4969882;28;20066;-84
2023/06/21 01:31:20;;;;;;;40.60;24.00;;;;;;;25.32;73.23;99744.31;4944675;28;20051;-85
2023/06/21 01:33:49;;;;;;;41.58;22.83;;;;;;;25.35;73.06;99759.34;4969911;28;20061;-85
2023/06/21 01:36:16;;;;;;;42.97;24.52;;;;;;;25.37;72.51;99753.69;4951946;28;20133;-85
2023/06/21 01:38:44;;;;;;;40.47;23.83;;;;;;;25.33;73.08;99758.72;4956642;28;20567;-85
2023/06/21 01:41:12;;;;;;;43.50;24.27;;;;;;;25.37;72.82;99764.53;4958106;28;20081;-85
2023/06/21 01:43:39;;;;;;;36.88;22.25;;;;;;;25.36;72.44;99754.72;4956073;28;20418;-84
2023/06/21 01:46:07;;;;;;;39.97;24.63;;;;;;;25.32;72.17;99755.19;4953251;28;20130;-85
2023/06/21 01:48:34;;;;;;;43.40;24.33;;;;;;;25.31;72.39;99761.69;4949231;28;20465;-85
2023/06/21 01:51:03;;;;;;;37.30;23.50;;;;;;;25.28;72.29;99761.31;4962402;28;20448;-85
2023/06/21 01:53:33;;;;;;;46.50;25.70;;;;;;;25.27;72.53;99770.56;4950367;28;20050;-85
2023/06/21 01:56:03;;;;;;;47.50;26.55;;;;;;;25.23;73.04;99778.31;4957122;28;20453;-85
2023/06/21 01:58:31;;;;;;;46.58;24.73;;;;;;;25.19;73.09;99773.59;4947459;28;20046;-85
2023/06/21 02:00:58;;;;;;;47.90;24.35;;;;;;;25.16;73.00;99766.72;4970295;28;20255;-85
2023/06/21 02:03:27;;;;;;;38.80;22.83;;;;;;;25.20;72.53;99765.22;4948553;28;20134;-86
2023/06/21 02:05:56;;;;;;;37.03;23.33;;;;;;;25.18;72.50;99761.91;4961999;28;20045;-85
2023/06/21 02:08:23;;;;;;;39.25;23.00;;;;;;;25.17;72.19;99764.88;4970234;28;20082;-85
2023/06/21 02:10:50;;;;;;;38.10;22.48;;;;;;;25.15;72.46;99766.94;4960800;28;20137;-85
2023/06/21 02:13:17;;;;;;;36.10;21.30;;;;;;;25.13;72.25;99769.88;4971971;28;20047;-85
2023/06/21 02:15:46;;;;;;;33.78;22.60;;;;;;;25.11;72.85;99781.00;4958780;28;20058;-85
2023/06/21 02:18:13;;;;;;;36.45;22.60;;;;;;;25.09;72.77;99782.31;4976367;28;20056;-85
2023/06/21 02:21:00;;;;;;;44.38;24.52;;;;;;;24.94;74.11;99790.03;4964138;28;20062;-85
2023/06/21 02:23:27;;;;;;;44.80;24.52;;;;;;;25.06;73.28;99796.31;4973322;28;20508;-85
2023/06/21 02:25:54;;;;;;;44.00;24.98;;;;;;;25.08;73.47;99789.59;4973249;28;20134;-85
2023/06/21 02:28:20;;;;;;;42.70;23.45;;;;;;;25.03;73.24;99786.75;4976263;28;20046;-85
2023/06/21 02:30:47;;;;;;;41.50;21.67;;;;;;;25.00;72.87;99786.41;4954358;28;20121;-85
2023/06/21 02:33:14;;;;;;;41.42;21.88;;;;;;;25.02;72.69;99784.28;4952059;28;20425;-84
2023/06/21 02:35:41;;;;;;;35.15;22.15;;;;;;;25.00;73.09;99789.13;4947116;28;20237;-85
2023/06/21 02:38:08;;;;;;;33.35;22.83;;;;;;;25.02;73.14;99795.16;4975286;28;20549;-85
2023/06/21 02:40:35;;;;;;;33.92;19.23;;;;;;;24.97;72.91;99803.16;4959246;28;20081;-85
2023/06/21 02:43:02;;;;;;;24.45;17.77;;;;;;;25.00;72.41;99808.13;4955570;28;20099;-85
2023/06/21 02:45:31;;;;;;;24.70;16.63;;;;;;;25.00;71.95;99808.13;4927984;28;20047;-86
2023/06/21 02:47:58;;;;;;;26.80;17.08;;;;;;;24.97;71.89;99803.97;4980706;28;20681;-86
2023/06/21 02:50:25;;;;;;;26.13;15.45;;;;;;;24.98;71.23;99794.75;4947461;28;20051;-85
2023/06/21 02:52:52;;;;;;;29.40;17.15;;;;;;;24.90;71.57;99805.97;4942345;28;20058;-85
2023/06/21 02:55:19;;;;;;;29.17;16.63;;;;;;;24.90;71.50;99811.41;4965387;28;20507;-85
2023/06/21 02:57:48;;;;;;;30.60;16.80;;;;;;;24.88;71.29;99818.94;4964738;28;20049;-85
2023/06/21 03:00:22;;;;;;;27.45;16.73;;;;;;;24.88;71.06;99822.50;4957151;28;20667;-85
2023/06/21 03:02:51;;;;;;;32.25;16.15;;;;;;;24.73;71.04;99816.66;4961178;28;20111;-84
2023/06/21 03:05:18;;;;;;;22.98;14.85;;;;;;;24.74;70.90;99826.44;4959088;28;20062;-85
2023/06/21 03:07:46;;;;;;;29.13;15.82;;;;;;;24.70;70.77;99822.53;4949036;28;20137;-85
2023/06/21 03:10:14;;;;;;;25.13;14.70;;;;;;;24.73;70.49;99821.22;4948273;28;20066;-85
2023/06/21 03:12:42;;;;;;;26.65;15.68;;;;;;;24.72;70.39;99825.84;4964549;28;20058;-85
2023/06/21 03:15:10;;;;;;;29.17;17.73;;;;;;;24.71;70.94;99834.22;4941517;28;20051;-86
2023/06/21 03:17:39;;;;;;;33.83;19.52;;;;;;;24.69;71.64;99829.84;4960471;28;20070;-87
2023/06/21 03:20:12;;;;;;;33.38;20.77;;;;;;;24.66;71.48;99835.72;4951094;28;20054;-87
2023/06/21 03:22:41;;;;;;;36.10;21.38;;;;;;;24.67;71.88;99836.56;4936168;28;20055;-87
2023/06/21 03:25:14;;;;;;;49.13;23.40;;;;;;;24.54;72.53;99834.84;4962822;28;20112;-87
2023/06/21 03:27:44;;;;;;;36.78;21.42;;;;;;;24.65;72.22;99846.81;4991028;28;20466;-87
2023/06/21 03:30:12;;;;;;;37.85;22.00;;;;;;;24.65;72.31;99852.25;4952595;28;20051;-87
2023/06/21 03:32:49;;;;;;;39.13;22.40;;;;;;;24.62;72.41;99867.09;4950957;28;20055;-86
2023/06/21 03:35:18;;;;;;;38.95;21.63;;;;;;;24.63;72.73;99874.22;4970863;28;20079;-87
2023/06/21 03:37:47;;;;;;;44.63;22.67;;;;;;;24.60;72.59;99873.81;4947031;28;20050;-87
2023/06/21 03:40:18;;;;;;;35.33;21.77;;;;;;;24.62;72.66;99875.25;4947101;28;20113;-87
2023/06/21 03:42:45;;;;;;;33.60;20.42;;;;;;;24.56;72.67;99878.88;4964002;28;20118;-88
2023/06/21 03:45:13;;;;;;;33.03;21.05;;;;;;;24.59;72.41;99877.59;4969279;28;20077;-88
2023/06/21 03:47:44;;;;;;;33.78;19.95;;;;;;;24.57;72.73;99883.25;4961368;28;20057;-87
2023/06/21 03:50:12;;;;;;;36.53;21.38;;;;;;;24.56;72.98;99889.75;4934347;28;20073;-87
2023/06/21 03:52:41;;;;;;;35.13;20.30;;;;;;;24.57;73.21;99904.13;4921472;28;20050;-87
2023/06/21 03:55:08;;;;;;;34.33;20.60;;;;;;;24.57;72.89;99923.13;4978373;28;20078;-87
2023/06/21 03:57:36;;;;;;;34.80;21.25;;;;;;;24.57;72.96;99939.44;4986421;28;20522;-87
2023/06/21 04:00:06;;;;;;;26.65;18.63;;;;;;;24.57;72.52;99942.97;4934342;28;20282;-86
2023/06/21 04:02:41;;;;;;;30.80;17.17;;;;;;;24.59;72.30;99980.75;4967761;28;20120;-87
2023/06/21 04:05:11;;;;;;;36.00;17.50;;;;;;;24.67;71.67;99983.19;4951176;28;20558;-86
2023/06/21 04:07:39;;;;;;;23.95;16.73;;;;;;;24.71;71.07;99970.00;4958660;28;20070;-86
2023/06/21 04:10:09;;;;;;;28.95;18.52;;;;;;;24.63;71.84;99971.13;4953599;28;20396;-87
2023/06/21 04:12:36;;;;;;;31.27;19.33;;;;;;;24.62;72.22;99983.03;4961050;28;20054;-88
2023/06/21 04:15:05;;;;;;;40.13;20.73;;;;;;;24.66;71.68;99974.22;4976025;28;20054;-86
2023/06/21 04:17:36;;;;;;;38.13;19.20;;;;;;;24.64;72.24;99949.16;4970676;28;20046;-87
2023/06/21 04:20:10;;;;;;;29.83;17.08;;;;;;;24.64;72.57;99957.31;4935325;28;20075;-87
2023/06/21 04:22:42;;;;;;;28.90;18.02;;;;;;;24.64;72.53;99940.19;4972874;28;20106;-86
2023/06/21 04:25:09;;;;;;;29.77;17.58;;;;;;;24.58;72.92;99908.53;4962070;28;20046;-87
2023/06/21 04:27:36;;;;;;;31.50;18.10;;;;;;;24.56;72.74;99895.16;4945944;28;20062;-88
2023/06/21 04:30:03;;;;;;;31.75;19.90;;;;;;;24.47;72.65;99881.06;4951101;28;20049;-87
2023/06/21 04:32:31;;;;;;;36.05;20.50;;;;;;;24.49;71.86;99869.97;4945656;28;20050;-87
2023/06/21 04:34:59;;;;;;;33.00;19.30;;;;;;;24.43;72.17;99862.72;4967365;28;20076;-88
2023/06/21 04:37:28;;;;;;;45.10;23.55;;;;;;;24.25;73.26;99858.09;4968600;28;20073;-87
2023/06/21 04:39:55;;;;;;;40.25;22.77;;;;;;;24.19;73.93;99867.13;4981382;28;20042;-86
2023/06/21 04:42:38;;;;;;;34.35;20.77;;;;;;;24.26;73.94;99871.44;4977189;28;20047;-84
2023/06/21 04:45:05;;;;;;;42.00;21.08;;;;;;;24.32;74.64;99882.44;4979255;28;20111;-85
2023/06/21 04:47:32;;;;;;;36.72;19.60;;;;;;;24.35;74.73;99896.41;4985985;28;20050;-85
2023/06/21 04:49:59;;;;;;;31.02;18.42;;;;;;;24.42;74.81;99902.56;4968029;28;20066;-85
2023/06/21 04:52:47;;;;;;;32.45;18.17;;;;;;;24.43;74.71;99912.41;4941987;28;20046;-86
2023/06/21 04:55:17;;;;;;;32.63;18.25;;;;;;;24.52;74.17;99931.13;4930953;28;20046;-85
2023/06/21 04:57:47;;;;;;;27.38;17.52;;;;;;;24.55;74.49;99950.53;4948460;28;20144;-85
2023/06/21 05:00:15;;;;;;;26.00;15.85;;;;;;;24.62;74.06;99962.13;4949160;28;20043;-85
2023/06/21 05:02:42;;;;;;;25.85;16.02;;;;;;;24.71;73.71;99957.25;4917005;28;20127;-86
2023/06/21 05:05:09;;;;;;;23.15;16.10;;;;;;;24.68;74.13;99953.09;4935150;28;20073;-86
2023/06/21 05:07:38;;;;;;;25.83;14.18;;;;;;;24.77;73.28;99929.19;4952482;28;20137;-86
2023/06/21 05:10:07;;;;;;;21.63;14.38;;;;;;;24.78;73.57;99906.41;4986212;28;20077;-86
2023/06/21 05:12:34;;;;;;;27.63;14.07;;;;;;;24.82;73.61;99915.75;4986497;28;20491;-86
2023/06/21 05:15:01;;;;;;;24.15;15.23;;;;;;;24.84;73.90;99912.81;4970151;28;20081;-86
2023/06/21 05:17:28;;;;;;;34.45;15.63;;;;;;;24.78;74.13;99900.97;4968171;28;20049;-87
2023/06/21 05:19:55;;;;;;;27.80;15.52;;;;;;;24.73;74.58;99899.97;4982162;28;20046;-86
2023/06/21 05:22:22;;;;;;;39.58;17.05;;;;;;;24.67;74.38;99916.13;4979238;28;20042;-86
2023/06/21 05:24:49;;;;;;;33.55;17.70;;;;;;;24.66;74.82;99922.63;4952550;28;20054;-87
2023/06/21 05:27:16;;;;;;;26.98;15.65;;;;;;;24.66;74.76;99919.09;4957681;28;20061;-87
2023/06/21 05:29:43;;;;;;;26.38;15.95;;;;;;;24.65;74.64;99928.25;4983251;28;20081;-86
2023/06/21 05:32:10;;;;;;;31.52;16.42;;;;;;;24.60;75.12;99934.41;4969753;28;20049;-87
2023/06/21 05:34:37;;;;;;;24.55;14.80;;;;;;;24.59;75.33;99951.72;4969545;28;20404;-87
2023/06/21 05:37:04;;;;;;;23.02;14.07;;;;;;;24.62;75.01;99955.88;4986667;28;20042;-86
2023/06/21 05:39:31;;;;;;;18.92;14.07;;;;;;;24.60;75.07;99945.25;4949919;28;20396;-87
2023/06/21 05:41:57;;;;;;;28.48;15.48;;;;;;;24.63;74.49;99935.84;4960493;28;20124;-87
2023/06/21 05:44:24;;;;;;;26.10;14.20;;;;;;;24.58;75.00;99936.50;4949921;28;20035;-86
2023/06/21 05:46:52;;;;;;;28.73;14.70;;;;;;;24.58;75.63;99952.78;4971818;28;20078;-87
2023/06/21 05:49:19;;;;;;;23.30;15.57;;;;;;;24.57;75.77;99950.28;4950331;28;20053;-86
2023/06/21 05:51:46;;;;;;;23.77;14.77;;;;;;;24.54;75.96;99970.56;4944082;28;20081;-87
2023/06/21 05:54:13;;;;;;;26.75;14.45;;;;;;;24.54;76.00;99961.59;4984780;28;20125;-87
2023/06/21 05:56:41;;;;;;;24.55;14.32;;;;;;;24.53;75.21;99960.78;4937848;28;20129;-87
2023/06/21 05:59:08;;;;;;;25.17;14.20;;;;;;;24.55;74.55;99960.53;4953112;28;20072;-87
2023/06/21 06:01:35;;;;;;;25.77;14.40;;;;;;;24.52;75.11;99952.84;4954200;28;20070;-86
2023/06/21 06:04:02;;;;;;;25.27;14.45;;;;;;;24.53;74.98;99959.97;4987719;28;20042;-87
2023/06/21 06:06:38;;;;;;;25.15;14.02;;;;;;;24.46;74.88;99970.88;4955353;28;20514;-87
2023/06/21 06:09:09;;;;;;;25.75;14.40;;;;;;;24.57;74.74;99977.44;4933382;28;20228;-86
2023/06/21 06:11:36;;;;;;;22.88;13.40;;;;;;;24.54;74.78;99969.75;4931540;28;20057;-86
2023/06/21 06:14:03;;;;;;;17.88;12.70;;;;;;;24.60;74.55;99972.41;4936991;28;20051;-87
2023/06/21 06:16:30;;;;;;;21.20;11.48;;;;;;;24.57;74.17;99970.13;4938246;28;20046;-86
2023/06/21 06:18:56;;;;;;;23.65;12.88;;;;;;;24.57;74.19;99953.00;4969559;28;22658;-87
2023/06/21 06:21:23;;;;;;;21.17;12.40;;;;;;;24.57;74.72;99950.28;4939066;28;20047;-86
2023/06/21 06:23:51;;;;;;;22.20;12.27;;;;;;;24.60;74.57;99963.41;4955240;28;20069;-86
2023/06/21 06:26:23;;;;;;;18.55;12.82;;;;;;;24.60;74.84;99968.84;4955547;28;20488;-86
2023/06/21 06:28:50;;;;;;;21.90;11.30;;;;;;;24.58;74.33;99968.25;4948544;28;20098;-86
2023/06/21 06:31:23;;;;;;;21.10;12.55;;;;;;;24.45;74.75;99974.63;4943435;28;20077;-86
2023/06/21 06:33:50;;;;;;;21.58;10.50;;;;;;;24.54;73.97;99976.00;4940617;28;20059;-86
2023/06/21 06:36:18;;;;;;;25.92;10.70;;;;;;;24.57;74.39;99982.88;4955779;28;20288;-86
2023/06/21 06:38:46;;;;;;;20.10;11.35;;;;;;;24.56;75.18;99997.50;4966555;28;20046;-87
2023/06/21 06:41:13;;;;;;;17.58;11.55;;;;;;;24.55;73.11;99995.84;4954980;28;20043;-86
2023/06/21 06:43:40;;;;;;;27.25;12.50;;;;;;;24.52;73.65;99996.28;4988527;28;20080;-86
2023/06/21 06:46:07;;;;;;;18.63;11.82;;;;;;;24.45;73.75;100001.75;4980464;28;20467;-87
2023/06/21 06:48:33;;;;;;;24.63;12.50;;;;;;;24.50;74.22;100004.66;4958148;28;20043;-87
2023/06/21 06:51:01;;;;;;;20.40;11.60;;;;;;;24.46;73.91;100008.88;4994548;28;20053;-86
2023/06/21 06:53:27;;;;;;;20.30;11.38;;;;;;;24.47;73.39;100005.94;4994003;28;20093;-86
2023/06/21 06:55:58;;;;;;;21.40;9.63;;;;;;;24.48;74.25;100012.19;4949733;28;22355;-86
2023/06/21 06:58:27;;;;;;;14.52;9.27;;;;;;;24.48;73.14;100006.78;4984670;28;20050;-86
2023/06/21 07:00:55;;;;;;;23.80;9.82;;;;;;;24.52;73.50;100015.28;4989222;28;20054;-86
2023/06/21 07:03:21;;;;;;;15.00;9.40;;;;;;;24.51;74.17;100028.03;4960532;28;20216;-87
2023/06/21 07:05:48;;;;;;;23.50;9.70;;;;;;;24.53;74.27;100031.38;4982764;28;20400;-86
2023/06/21 07:08:16;;;;;;;20.30;9.82;;;;;;;24.63;72.92;100039.00;4961588;28;20042;-87
2023/06/21 07:10:43;;;;;;;15.00;9.15;;;;;;;24.59;72.34;100033.19;4985988;28;20057;-86
2023/06/21 07:13:10;;;;;;;20.20;9.70;;;;;;;24.61;72.46;100031.06;4993549;28;20556;-86
2023/06/21 07:15:37;;;;;;;18.80;8.68;;;;;;;24.65;71.62;100036.88;4961219;28;20077;-86
2023/06/21 07:18:04;;;;;;;16.13;8.90;;;;;;;24.64;71.40;100035.22;4993260;28;20058;-87
2023/06/21 07:20:31;;;;;;;14.90;9.23;;;;;;;24.64;70.86;100035.22;4960210;28;20129;-87
2023/06/21 07:22:59;;;;;;;15.63;9.80;;;;;;;24.62;71.55;100034.63;4960382;28;20058;-87
2023/06/21 07:25:26;;;;;;;20.75;9.13;;;;;;;24.64;72.26;100036.06;4992286;28;20053;-87
2023/06/21 07:27:53;;;;;;;18.90;9.65;;;;;;;24.63;70.78;100020.00;4993457;28;20108;-87
2023/06/21 07:30:22;;;;;;;15.57;9.10;;;;;;;24.61;70.74;100013.97;4977703;28;20042;-87
2023/06/21 07:32:50;;;;;;;18.58;8.90;;;;;;;24.59;69.94;100008.75;4942743;28;20480;-87
2023/06/21 07:35:17;;;;;;;17.00;9.32;;;;;;;24.58;70.59;100011.69;5000853;28;20082;-86
2023/06/21 07:37:45;;;;;;;16.20;9.48;;;;;;;24.57;70.30;99991.84;4956663;28;20042;-87
2023/06/21 07:40:12;;;;;;;16.52;8.70;;;;;;;24.63;69.71;100003.72;4980230;28;20054;-86
2023/06/21 07:42:39;;;;;;;16.35;9.82;;;;;;;24.63;71.07;100006.44;4990084;28;20069;-86
2023/06/21 07:45:07;;;;;;;20.75;9.70;;;;;;;24.65;72.71;100023.31;4990103;28;20539;-87
2023/06/21 07:47:34;;;;;;;19.48;10.02;;;;;;;24.67;72.78;100015.75;4987106;28;20131;-88
2023/06/21 07:50:02;;;;;;;13.75;9.38;;;;;;;24.70;71.35;100012.59;4969703;28;20042;-87
2023/06/21 07:52:47;;;;;;;17.13;9.27;;;;;;;24.74;71.51;100000.25;4969100;28;20101;-87
2023/06/21 07:55:14;;;;;;;17.75;9.65;;;;;;;24.79;72.13;100005.84;4953285;28;20053;-87
2023/06/21 07:57:41;;;;;;;14.32;9.07;;;;;;;24.90;72.55;100006.97;4980712;28;20074;-88
2023/06/21 08:00:11;;;;;;;17.63;9.35;;;;;;;24.99;72.85;100002.91;4954994;28;20129;-87
2023/06/21 08:02:39;;;;;;;13.88;8.98;;;;;;;25.01;71.94;99992.66;4988622;28;20054;-88
2023/06/21 08:05:06;;;;;;;14.27;9.10;;;;;;;25.03;71.74;100000.56;4989974;28;20046;-87
2023/06/21 08:07:33;;;;;;;13.05;9.00;;;;;;;25.05;72.01;99991.13;4990245;28;20057;-87
2023/06/21 08:10:00;;;;;;;16.33;10.18;;;;;;;25.17;71.73;99991.22;4989414;28;20058;-88
2023/06/21 08:12:27;;;;;;;13.88;9.40;;;;;;;25.23;71.47;99993.03;4971472;28;20495;-87
2023/06/21 08:14:54;;;;;;;16.60;9.63;;;;;;;25.30;71.54;99992.97;4988040;28;20141;-88
2023/06/21 08:17:20;;;;;;;17.77;9.77;;;;;;;25.40;72.16;99998.69;4939430;28;20081;-87
2023/06/21 08:19:47;;;;;;;16.15;9.32;;;;;;;25.43;70.90;99987.34;4972440;28;20054;-88
2023/06/21 08:22:14;;;;;;;16.10;10.13;;;;;;;25.50;70.27;100017.16;4979167;28;20047;-87
2023/06/21 08:24:41;;;;;;;15.70;9.93;;;;;;;25.50;69.00;100026.16;4985163;28;20058;-88
2023/06/21 08:27:08;;;;;;;15.40;10.05;;;;;;;25.48;68.79;100020.09;4991188;28;20117;-88
2023/06/21 08:29:35;;;;;;;19.50;9.93;;;;;;;25.51;69.17;100026.97;4970443;28;20062;-88
2023/06/21 08:32:04;;;;;;;18.20;9.35;;;;;;;25.53;68.48;100033.03;4986510;28;20056;-88
2023/06/21 08:34:31;;;;;;;21.60;9.88;;;;;;;25.50;68.39;100028.03;4966394;28;20050;-88
2023/06/21 08:36:59;;;;;;;16.05;9.95;;;;;;;25.50;68.27;100034.31;4972108;28;20046;-87
2023/06/21 08:39:26;;;;;;;14.48;9.40;;;;;;;25.46;68.70;100037.72;4985564;28;20057;-90
2023/06/21 08:41:57;;;;;;;15.75;9.40;;;;;;;25.52;68.58;100039.53;4987741;28;20050;-89
2023/06/21 08:44:23;;;;;;;14.13;8.65;;;;;;;25.51;68.44;100046.81;4985759;28;20034;-89
2023/06/21 08:46:51;;;;;;;18.88;9.18;;;;;;;25.51;67.57;100056.88;4969093;28;20038;-89
2023/06/21 08:49:19;;;;;;;15.88;8.90;;;;;;;25.46;67.53;100056.72;4975321;28;20046;-87
2023/06/21 08:51:47;;;;;;;17.42;9.25;;;;;;;25.42;67.30;100061.81;4970865;28;20057;-88
2023/06/21 08:54:14;;;;;;;12.70;9.00;;;;;;;25.42;67.79;100069.97;4953034;28;20133;-89
2023/06/21 08:56:49;;;;;;;15.52;9.32;;;;;;;25.42;67.94;100078.13;4977713;28;20050;-89
2023/06/21 08:59:23;;;;;;;13.55;8.85;;;;;;;25.39;68.55;100078.59;4982367;28;20105;-89
2023/06/21 09:02:00;;;;;;;18.80;9.27;;;;;;;25.41;68.63;100078.34;4965277;28;20057;-88
2023/06/21 09:04:33;;;;;;;16.63;9.25;;;;;;;25.47;68.28;100075.56;4950500;28;20077;-89
2023/06/21 09:07:00;;;;;;;14.77;9.00;;;;;;;25.53;68.74;100068.38;4964989;28;20105;-88
2023/06/21 09:09:27;;;;;;;13.75;8.25;;;;;;;25.58;68.78;100064.97;4949944;28;20459;-89
2023/06/21 09:11:55;;;;;;;13.70;8.18;;;;;;;25.62;68.63;100061.56;4964979;28;20567;-89
2023/06/21 09:14:22;;;;;;;12.43;7.85;;;;;;;25.63;68.34;100063.22;4967340;28;20543;-88
2023/06/21 09:16:49;;;;;;;12.27;8.38;;;;;;;25.62;67.54;100061.56;4997947;28;20053;-88
2023/06/21 09:19:16;;;;;;;15.30;8.60;;;;;;;25.59;67.64;100058.47;4984908;28;20188;-89
2023/06/21 09:21:43;;;;;;;14.23;8.10;;;;;;;25.55;67.42;100066.25;5005061;28;20114;-88
2023/06/21 09:24:10;;;;;;;11.68;8.38;;;;;;;25.46;66.77;100054.84;4968401;28;20134;-89
2023/06/21 09:26:37;;;;;;;16.60;8.68;;;;;;;25.47;67.47;100061.97;4969076;28;20128;-88
2023/06/21 09:29:04;;;;;;;12.00;8.30;;;;;;;25.43;67.12;100063.47;4965459;28;20405;-89
2023/06/21 09:31:31;;;;;;;13.48;8.52;;;;;;;25.44;67.04;100064.28;4968439;28;20070;-89
2023/06/21 09:33:58;;;;;;;13.60;8.32;;;;;;;25.48;66.87;100070.94;4985185;28;20043;-89
2023/06/21 09:36:25;;;;;;;14.40;8.65;;;;;;;25.46;67.03;100056.72;4984547;28;20570;-89
2023/06/21 09:38:52;;;;;;;13.23;9.05;;;;;;;25.49;67.53;100057.13;4969255;28;20149;-88
2023/06/21 09:41:19;;;;;;;14.23;8.38;;;;;;;25.52;67.85;100058.56;4968273;28;20053;-89
2023/06/21 09:43:46;;;;;;;13.95;7.85;;;;;;;25.56;68.20;100052.41;4984894;28;20057;-88
2023/06/21 09:46:13;;;;;;;14.95;8.48;;;;;;;25.57;68.24;100047.81;4983957;28;20048;-88
2023/06/21 09:48:41;;;;;;;13.18;8.07;;;;;;;25.59;68.21;100040.25;4966525;28;20058;-89
2023/06/21 09:51:12;;;;;;;14.93;8.43;;;;;;;25.54;67.29;100040.09;4942781;28;20066;-88
2023/06/21 09:53:43;;;;;;;12.90;8.07;;;;;;;25.53;66.52;100052.06;4982448;28;20745;-88
2023/06/21 09:56:12;;;;;;;17.88;9.15;;;;;;;25.54;66.81;100054.56;4965341;28;20492;-87
2023/06/21 09:58:40;;;;;;;13.43;8.43;;;;;;;25.51;67.23;100054.97;4966425;28;20047;-89
2023/06/21 10:01:07;;;;;;;13.32;9.07;;;;;;;25.50;67.40;100052.50;4964751;28;20126;-89
2023/06/21 10:03:35;;;;;;;14.63;8.85;;;;;;;25.45;67.50;100061.34;4964674;28;20409;-88
2023/06/21 10:06:03;;;;;;;14.18;8.75;;;;;;;25.42;67.48;100059.09;4970750;28;20066;-87
2023/06/21 10:08:33;;;;;;;15.73;9.57;;;;;;;25.42;68.11;100063.72;4950343;28;20050;-89
2023/06/21 10:11:03;;;;;;;14.57;8.38;;;;;;;25.37;67.64;100061.66;4967715;28;20105;-88
2023/06/21 10:13:31;;;;;;;14.02;8.25;;;;;;;25.34;68.28;100067.56;4969618;28;20084;-88
2023/06/21 10:16:00;;;;;;;16.70;8.95;;;;;;;25.29;70.42;100068.25;5001718;28;20046;-89
2023/06/21 10:18:27;;;;;;;13.30;9.13;;;;;;;25.28;71.22;100072.00;4983583;28;20137;-89
2023/06/21 10:21:02;;;;;;;14.85;9.00;;;;;;;25.23;71.48;100065.59;4992123;28;20089;-88
2023/06/21 10:23:34;;;;;;;11.20;8.10;;;;;;;25.25;70.51;100063.47;4978186;28;20069;-88
2023/06/21 10:26:05;;;;;;;12.63;8.75;;;;;;;25.21;70.26;100060.34;4966009;28;20130;-88
2023/06/21 10:28:36;;;;;;;17.25;9.98;;;;;;;25.17;70.52;100063.78;4985613;28;20062;-88
2023/06/21 10:31:04;;;;;;;12.05;8.18;;;;;;;25.19;71.20;100069.78;4986540;28;20436;-88
2023/06/21 10:33:32;;;;;;;15.48;9.73;;;;;;;25.18;72.12;100070.88;4952956;28;20035;-88
2023/06/21 10:36:03;;;;;;;14.93;9.40;;;;;;;25.15;73.83;100074.84;4984363;28;20042;-88
2023/06/21 10:38:44;;;;;;;14.60;8.98;;;;;;;25.09;76.61;100086.63;4952581;28;20367;-89
2023/06/21 10:41:12;;;;;;;16.85;8.10;;;;;;;25.12;75.21;100072.56;4970599;28;20046;-87
2023/06/21 10:43:40;;;;;;;15.35;9.50;;;;;;;25.12;75.22;100078.00;4969067;28;20105;-89
2023/06/21 10:46:09;;;;;;;18.17;9.30;;;;;;;25.11;74.80;100076.31;4952917;28;20049;-89
2023/06/21 10:48:36;;;;;;;16.17;9.38;;;;;;;25.07;74.61;100075.13;4984901;28;20050;-89
2023/06/21 10:51:04;;;;;;;16.70;9.35;;;;;;;25.05;75.17;100088.94;4936924;28;20051;-88
2023/06/21 10:53:35;;;;;;;11.63;9.05;;;;;;;25.02;76.38;100089.38;4984791;28;20129;-89
2023/06/21 10:56:06;;;;;;;16.23;9.13;;;;;;;25.04;76.20;100091.91;4967514;28;20054;-88
2023/06/21 10:58:33;;;;;;;15.50;9.38;;;;;;;25.04;76.67;100081.84;4986885;28;20054;-88
2023/06/21 11:01:00;;;;;;;19.42;9.73;;;;;;;25.04;76.84;100081.03;4989471;28;20499;-89
2023/06/21 11:03:27;;;;;;;14.10;9.27;;;;;;;25.01;76.88;100085.03;4955920;28;20054;-88
2023/06/21 11:06:22;;;;;;;12.05;9.10;;;;;;;24.92;78.39;100092.63;4989734;28;20396;-89
2023/06/21 11:08:49;;;;;;;13.35;9.25;;;;;;;25.02;76.78;100094.00;4988191;28;20078;-89
2023/06/21 11:11:29;;;;;;;13.85;9.80;;;;;;;24.96;77.24;100094.88;4939326;28;20045;-89
2023/06/21 11:13:56;;;;;;;16.10;9.13;;;;;;;25.04;76.84;100103.59;4955724;28;20118;-89
2023/06/21 11:16:25;;;;;;;18.65;9.77;;;;;;;25.08;76.60;100110.22;4953260;28;20050;-89
2023/06/21 11:18:59;;;;;;;13.73;8.95;;;;;;;25.10;77.02;100118.97;4952943;28;20051;-88
2023/06/21 11:21:44;;;;;;;15.05;9.07;;;;;;;25.10;77.95;100134.47;4968515;28;20055;-87
2023/06/21 11:24:15;;;;;;;12.95;9.38;;;;;;;25.21;77.61;100135.63;4967641;28;20051;-88